sensor_id;sensor_type;location;lat;lon;timestamp;pressure;altitude;pressure_sealevel;temperature;humidity
13661;BME280;6903;49.480;11.102;2023-05-22T00:01:08;97559.13;;;18.03;100.00
13661;BME280;6903;49.480;11.102;2023-05-22T00:03:34;97565.47;;;18.02;100.00
13661;BME280;6903;49.480;11.102;2023-05-22T00:06:00;97556.28;;;18.05;100.00
13661;BME280;6903;49.480;11.102;2023-05-22T00:08:27;97548.81;;;18.00;100.00
13661;BME280;6903;49.480;11.102;2023-05-22T00:10:53;97553.13;;;18.01;100.00
13661;BME280;6903;49.480;11.102;2023-05-22T00:13:18;97548.63;;;18.02;100.00
13661;BME280;6903;49.480;11.102;2023-05-22T00:15:43;97549.81;;;17.99;100.00
13661;BME280;6903;49.480;11.102;2023-05-22T00:18:08;97544.66;;;17.98;100.00
13661;BME280;6903;49.480;11.102;2023-05-22T00:20:34;97537.47;;;17.98;100.00
13661;BME280;6903;49.480;11.102;2023-05-22T00:23:03;97537.00;;;17.95;100.00
13661;BME280;6903;49.480;11.102;2023-05-22T00:25:28;97529.38;;;17.92;100.00
13661;BME280;6903;49.480;11.102;2023-05-22T00:27:54;97534.03;;;17.90;100.00
13661;BME280;6903;49.480;11.102;2023-05-22T00:30:19;97531.19;;;17.91;100.00
13661;BME280;6903;49.480;11.102;2023-05-22T00:32:44;97530.38;;;17.91;100.00
13661;BME280;6903;49.480;11.102;2023-05-22T00:35:10;97532.50;;;17.95;100.00
13661;BME280;6903;49.480;11.102;2023-05-22T00:37:35;97535.47;;;18.00;100.00
13661;BME280;6903;49.480;11.102;2023-05-22T00:40:00;97530.63;;;18.04;100.00
13661;BME280;6903;49.480;11.102;2023-05-22T00:42:26;97522.94;;;18.01;100.00
13661;BME280;6903;49.480;11.102;2023-05-22T00:44:51;97530.13;;;18.00;100.00
13661;BME280;6903;49.480;11.102;2023-05-22T00:47:16;97527.78;;;18.05;100.00
13661;BME280;6903;49.480;11.102;2023-05-22T00:49:42;97526.75;;;18.06;100.00
13661;BME280;6903;49.480;11.102;2023-05-22T00:52:09;97528.59;;;18.06;100.00
13661;BME280;6903;49.480;11.102;2023-05-22T00:54:34;97514.88;;;18.09;100.00
13661;BME280;6903;49.480;11.102;2023-05-22T00:57:00;97521.41;;;18.06;100.00
13661;BME280;6903;49.480;11.102;2023-05-22T00:59:26;97529.41;;;18.06;100.00
13661;BME280;6903;49.480;11.102;2023-05-22T01:01:52;97523.72;;;18.09;100.00
13661;BME280;6903;49.480;11.102;2023-05-22T01:04:17;97522.06;;;18.08;100.00
13661;BME280;6903;49.480;11.102;2023-05-22T01:06:42;97528.75;;;18.04;100.00
13661;BME280;6903;49.480;11.102;2023-05-22T01:09:11;97527.84;;;17.97;100.00
13661;BME280;6903;49.480;11.102;2023-05-22T01:14:28;97528.88;;;17.88;100.00
13661;BME280;6903;49.480;11.102;2023-05-22T01:17:06;97526.41;;;17.87;100.00
13661;BME280;6903;49.480;11.102;2023-05-22T01:20:03;97524.25;;;17.82;100.00
13661;BME280;6903;49.480;11.102;2023-05-22T01:33:20;97526.28;;;17.80;100.00
13661;BME280;6903;49.480;11.102;2023-05-22T01:35:50;97539.59;;;17.80;100.00
13661;BME280;6903;49.480;11.102;2023-05-22T01:38:18;97536.94;;;17.80;100.00
13661;BME280;6903;49.480;11.102;2023-05-22T01:40:44;97530.13;;;17.78;100.00
13661;BME280;6903;49.480;11.102;2023-05-22T01:43:12;97536.00;;;17.73;100.00
13661;BME280;6903;49.480;11.102;2023-05-22T01:45:37;97536.31;;;17.70;100.00
13661;BME280;6903;49.480;11.102;2023-05-22T01:48:03;97543.03;;;17.66;100.00
13661;BME280;6903;49.480;11.102;2023-05-22T01:50:28;97538.06;;;17.63;100.00
13661;BME280;6903;49.480;11.102;2023-05-22T01:55:50;97538.38;;;17.68;100.00
13661;BME280;6903;49.480;11.102;2023-05-22T02:00:51;97536.72;;;17.59;100.00
13661;BME280;6903;49.480;11.102;2023-05-22T02:03:22;97544.09;;;17.57;100.00
13661;BME280;6903;49.480;11.102;2023-05-22T02:05:52;97538.41;;;17.60;100.00
13661;BME280;6903;49.480;11.102;2023-05-22T02:08:19;97535.09;;;17.58;100.00
13661;BME280;6903;49.480;11.102;2023-05-22T02:10:45;97535.63;;;17.54;100.00
13661;BME280;6903;49.480;11.102;2023-05-22T02:13:11;97539.09;;;17.54;100.00
13661;BME280;6903;49.480;11.102;2023-05-22T02:15:36;97538.28;;;17.54;100.00
13661;BME280;6903;49.480;11.102;2023-05-22T02:18:02;97537.25;;;17.55;100.00
13661;BME280;6903;49.480;11.102;2023-05-22T02:20:28;97532.78;;;17.55;100.00
13661;BME280;6903;49.480;11.102;2023-05-22T02:22:53;97540.09;;;17.53;100.00
13661;BME280;6903;49.480;11.102;2023-05-22T02:25:18;97532.28;;;17.52;100.00
13661;BME280;6903;49.480;11.102;2023-05-22T02:27:45;97526.59;;;17.55;100.00
13661;BME280;6903;49.480;11.102;2023-05-22T02:30:11;97533.13;;;17.52;100.00
13661;BME280;6903;49.480;11.102;2023-05-22T02:32:38;97527.97;;;17.51;100.00
13661;BME280;6903;49.480;11.102;2023-05-22T02:35:03;97528.78;;;17.51;100.00
13661;BME280;6903;49.480;11.102;2023-05-22T02:37:29;97525.47;;;17.49;100.00
13661;BME280;6903;49.480;11.102;2023-05-22T02:39:55;97528.47;;;17.46;100.00
13661;BME280;6903;49.480;11.102;2023-05-22T02:42:21;97533.31;;;17.43;100.00
13661;BME280;6903;49.480;11.102;2023-05-22T02:44:47;97533.31;;;17.43;100.00
13661;BME280;6903;49.480;11.102;2023-05-22T02:47:12;97525.97;;;17.45;100.00
13661;BME280;6903;49.480;11.102;2023-05-22T02:49:37;97529.97;;;17.49;100.00
13661;BME280;6903;49.480;11.102;2023-05-22T02:52:03;97524.66;;;17.49;100.00
13661;BME280;6903;49.480;11.102;2023-05-22T02:54:28;97528.66;;;17.45;100.00
13661;BME280;6903;49.480;11.102;2023-05-22T02:56:53;97525.81;;;17.38;100.00
13661;BME280;6903;49.480;11.102;2023-05-22T02:59:18;97527.50;;;17.39;100.00
13661;BME280;6903;49.480;11.102;2023-05-22T03:01:44;97528.84;;;17.35;100.00
13661;BME280;6903;49.480;11.102;2023-05-22T03:04:12;97542.56;;;17.24;100.00
13661;BME280;6903;49.480;11.102;2023-05-22T03:06:38;97537.22;;;17.24;100.00
13661;BME280;6903;49.480;11.102;2023-05-22T03:09:04;97540.06;;;17.23;100.00
13661;BME280;6903;49.480;11.102;2023-05-22T03:11:30;97536.91;;;17.19;100.00
13661;BME280;6903;49.480;11.102;2023-05-22T03:13:55;97528.41;;;17.16;100.00
13661;BME280;6903;49.480;11.102;2023-05-22T03:16:21;97535.13;;;17.12;100.00
13661;BME280;6903;49.480;11.102;2023-05-22T03:18:46;97538.31;;;17.07;100.00
13661;BME280;6903;49.480;11.102;2023-05-22T03:21:11;97533.94;;;17.06;100.00
13661;BME280;6903;49.480;11.102;2023-05-22T03:23:37;97534.97;;;17.05;100.00
13661;BME280;6903;49.480;11.102;2023-05-22T03:26:02;97529.31;;;17.00;100.00
13661;BME280;6903;49.480;11.102;2023-05-22T03:28:27;97534.16;;;16.96;100.00
13661;BME280;6903;49.480;11.102;2023-05-22T03:30:53;97531.16;;;16.99;100.00
13661;BME280;6903;49.480;11.102;2023-05-22T03:33:18;97533.81;;;16.99;100.00
13661;BME280;6903;49.480;11.102;2023-05-22T03:35:44;97539.31;;;16.98;100.00
13661;BME280;6903;49.480;11.102;2023-05-22T03:38:09;97545.81;;;16.95;100.00
13661;BME280;6903;49.480;11.102;2023-05-22T03:40:34;97534.50;;;16.93;100.00
13661;BME280;6903;49.480;11.102;2023-05-22T03:43:00;97535.34;;;16.94;100.00
13661;BME280;6903;49.480;11.102;2023-05-22T03:45:25;97530.34;;;16.99;100.00
13661;BME280;6903;49.480;11.102;2023-05-22T03:47:50;97532.50;;;16.95;100.00
13661;BME280;6903;49.480;11.102;2023-05-22T03:50:16;97524.88;;;16.92;100.00
13661;BME280;6903;49.480;11.102;2023-05-22T03:52:41;97534.00;;;16.90;100.00
13661;BME280;6903;49.480;11.102;2023-05-22T03:55:07;97530.03;;;16.94;100.00
13661;BME280;6903;49.480;11.102;2023-05-22T03:57:32;97525.50;;;17.03;100.00
13661;BME280;6903;49.480;11.102;2023-05-22T03:59:58;97527.13;;;17.12;100.00
13661;BME280;6903;49.480;11.102;2023-05-22T04:02:30;97522.88;;;17.25;100.00
13661;BME280;6903;49.480;11.102;2023-05-22T04:04:55;97526.34;;;17.34;100.00
13661;BME280;6903;49.480;11.102;2023-05-22T04:07:20;97540.47;;;17.42;100.00
13661;BME280;6903;49.480;11.102;2023-05-22T04:09:46;97523.81;;;17.48;100.00
13661;BME280;6903;49.480;11.102;2023-05-22T04:12:11;97535.31;;;17.49;100.00
13661;BME280;6903;49.480;11.102;2023-05-22T04:14:36;97544.09;;;17.57;100.00
13661;BME280;6903;49.480;11.102;2023-05-22T04:17:02;97548.25;;;17.60;100.00
13661;BME280;6903;49.480;11.102;2023-05-22T04:19:27;97550.72;;;17.61;100.00
13661;BME280;6903;49.480;11.102;2023-05-22T04:21:54;97542.31;;;17.72;100.00
13661;BME280;6903;49.480;11.102;2023-05-22T04:24:19;97549.28;;;17.81;100.00
13661;BME280;6903;49.480;11.102;2023-05-22T04:26:47;97549.09;;;17.83;100.00
13661;BME280;6903;49.480;11.102;2023-05-22T04:29:13;97548.88;;;17.92;100.00
13661;BME280;6903;49.480;11.102;2023-05-22T04:31:38;97540.44;;;18.03;100.00
13661;BME280;6903;49.480;11.102;2023-05-22T04:34:05;97544.75;;;18.27;100.00
13661;BME280;6903;49.480;11.102;2023-05-22T04:36:30;97547.91;;;18.53;100.00
13661;BME280;6903;49.480;11.102;2023-05-22T04:38:56;97560.00;;;18.78;100.00
13661;BME280;6903;49.480;11.102;2023-05-22T04:41:21;97549.97;;;18.95;100.00
13661;BME280;6903;49.480;11.102;2023-05-22T04:43:53;97548.72;;;19.05;100.00
13661;BME280;6903;49.480;11.102;2023-05-22T04:46:18;97558.09;;;19.16;100.00
13661;BME280;6903;49.480;11.102;2023-05-22T04:48:44;97553.03;;;19.35;100.00
13661;BME280;6903;49.480;11.102;2023-05-22T04:51:11;97565.00;;;19.54;100.00
13661;BME280;6903;49.480;11.102;2023-05-22T04:53:37;97563.88;;;19.63;100.00
13661;BME280;6903;49.480;11.102;2023-05-22T04:56:03;97565.50;;;19.79;100.00
13661;BME280;6903;49.480;11.102;2023-05-22T04:58:28;97559.53;;;19.98;100.00
13661;BME280;6903;49.480;11.102;2023-05-22T05:00:53;97560.91;;;20.08;100.00
13661;BME280;6903;49.480;11.102;2023-05-22T05:03:21;97562.91;;;20.21;100.00
13661;BME280;6903;49.480;11.102;2023-05-22T05:05:47;97556.03;;;20.33;100.00
13661;BME280;6903;49.480;11.102;2023-05-22T05:08:12;97561.06;;;20.42;100.00
13661;BME280;6903;49.480;11.102;2023-05-22T05:10:37;97560.53;;;20.53;100.00
13661;BME280;6903;49.480;11.102;2023-05-22T05:13:03;97566.25;;;20.78;100.00
13661;BME280;6903;49.480;11.102;2023-05-22T05:15:28;97554.44;;;20.93;100.00
13661;BME280;6903;49.480;11.102;2023-05-22T05:17:54;97564.09;;;21.16;100.00
13661;BME280;6903;49.480;11.102;2023-05-22T05:20:19;97559.41;;;21.24;100.00
13661;BME280;6903;49.480;11.102;2023-05-22T05:22:45;97562.47;;;21.68;100.00
13661;BME280;6903;49.480;11.102;2023-05-22T05:25:10;97561.59;;;21.89;100.00
13661;BME280;6903;49.480;11.102;2023-05-22T05:27:36;97560.53;;;21.90;100.00
13661;BME280;6903;49.480;11.102;2023-05-22T05:30:01;97561.59;;;22.08;100.00
13661;BME280;6903;49.480;11.102;2023-05-22T05:32:27;97553.78;;;22.13;100.00
13661;BME280;6903;49.480;11.102;2023-05-22T05:34:52;97567.59;;;22.10;100.00
13661;BME280;6903;49.480;11.102;2023-05-22T05:37:18;97564.41;;;22.61;100.00
13661;BME280;6903;49.480;11.102;2023-05-22T05:39:43;97563.13;;;23.09;98.30
13661;BME280;6903;49.480;11.102;2023-05-22T05:42:08;97562.41;;;23.52;95.35
13661;BME280;6903;49.480;11.102;2023-05-22T05:44:34;97563.59;;;23.69;91.68
13661;BME280;6903;49.480;11.102;2023-05-22T05:46:59;97553.38;;;23.85;91.75
13661;BME280;6903;49.480;11.102;2023-05-22T05:49:25;97562.50;;;23.84;90.50
13661;BME280;6903;49.480;11.102;2023-05-22T05:51:51;97563.94;;;23.86;89.32
13661;BME280;6903;49.480;11.102;2023-05-22T05:54:16;97563.59;;;23.69;88.45
13661;BME280;6903;49.480;11.102;2023-05-22T05:56:41;97564.91;;;23.54;89.31
13661;BME280;6903;49.480;11.102;2023-05-22T05:59:07;97568.69;;;23.40;89.99
13661;BME280;6903;49.480;11.102;2023-05-22T06:01:33;97576.97;;;23.12;91.61
13661;BME280;6903;49.480;11.102;2023-05-22T06:03:59;97574.91;;;23.40;91.31
13661;BME280;6903;49.480;11.102;2023-05-22T06:06:29;97574.28;;;23.38;89.96
13661;BME280;6903;49.480;11.102;2023-05-22T06:08:55;97571.38;;;23.33;90.31
13661;BME280;6903;49.480;11.102;2023-05-22T06:11:20;97568.72;;;23.27;91.37
13661;BME280;6903;49.480;11.102;2023-05-22T06:13:46;97572.59;;;23.44;90.30
13661;BME280;6903;49.480;11.102;2023-05-22T06:16:11;97580.94;;;23.87;88.75
13661;BME280;6903;49.480;11.102;2023-05-22T06:18:37;97572.44;;;23.83;87.45
13661;BME280;6903;49.480;11.102;2023-05-22T06:21:02;97577.63;;;23.85;86.48
13661;BME280;6903;49.480;11.102;2023-05-22T06:23:27;97575.50;;;24.00;86.31
13661;BME280;6903;49.480;11.102;2023-05-22T06:25:53;97567.75;;;24.16;85.94
13661;BME280;6903;49.480;11.102;2023-05-22T06:28:18;97576.97;;;24.64;83.26
13661;BME280;6903;49.480;11.102;2023-05-22T06:30:43;97573.13;;;24.78;81.70
13661;BME280;6903;49.480;11.102;2023-05-22T06:33:09;97577.09;;;25.00;80.50
13661;BME280;6903;49.480;11.102;2023-05-22T06:35:34;97569.81;;;25.44;78.77
13661;BME280;6903;49.480;11.102;2023-05-22T06:37:59;97568.38;;;26.13;76.11
13661;BME280;6903;49.480;11.102;2023-05-22T06:40:25;97567.56;;;26.54;73.17
13661;BME280;6903;49.480;11.102;2023-05-22T06:42:51;97568.34;;;26.96;70.20
13661;BME280;6903;49.480;11.102;2023-05-22T06:45:16;97568.41;;;26.55;71.07
13661;BME280;6903;49.480;11.102;2023-05-22T06:47:44;97569.75;;;25.68;73.04
13661;BME280;6903;49.480;11.102;2023-05-22T06:50:09;97563.22;;;25.40;75.04
13661;BME280;6903;49.480;11.102;2023-05-22T06:52:35;97566.59;;;25.71;74.29
13661;BME280;6903;49.480;11.102;2023-05-22T06:55:00;97564.91;;;26.36;72.07
13661;BME280;6903;49.480;11.102;2023-05-22T06:57:32;97567.16;;;26.92;70.53
13661;BME280;6903;49.480;11.102;2023-05-22T06:59:59;97572.00;;;27.24;67.65
13661;BME280;6903;49.480;11.102;2023-05-22T07:02:25;97569.75;;;26.75;67.95
13661;BME280;6903;49.480;11.102;2023-05-22T07:04:50;97566.25;;;26.57;69.13
13661;BME280;6903;49.480;11.102;2023-05-22T07:07:17;97574.81;;;26.42;70.26
13661;BME280;6903;49.480;11.102;2023-05-22T07:09:43;97567.63;;;26.66;69.05
13661;BME280;6903;49.480;11.102;2023-05-22T07:12:08;97571.91;;;26.96;67.36
13661;BME280;6903;49.480;11.102;2023-05-22T07:14:34;97567.66;;;27.12;66.79
13661;BME280;6903;49.480;11.102;2023-05-22T07:16:59;97573.31;;;27.22;66.58
13661;BME280;6903;49.480;11.102;2023-05-22T07:19:25;97572.63;;;27.38;65.86
13661;BME280;6903;49.480;11.102;2023-05-22T07:21:50;97579.59;;;27.97;63.89
13661;BME280;6903;49.480;11.102;2023-05-22T07:24:15;97570.78;;;27.90;63.16
13661;BME280;6903;49.480;11.102;2023-05-22T07:26:41;97564.06;;;27.92;64.27
13661;BME280;6903;49.480;11.102;2023-05-22T07:29:11;97574.41;;;27.95;61.95
13661;BME280;6903;49.480;11.102;2023-05-22T07:31:37;97564.25;;;27.51;63.11
13661;BME280;6903;49.480;11.102;2023-05-22T07:34:03;97564.66;;;27.94;62.05
13661;BME280;6903;49.480;11.102;2023-05-22T07:36:28;97559.34;;;28.44;60.05
13661;BME280;6903;49.480;11.102;2023-05-22T07:38:53;97574.66;;;28.94;58.35
13661;BME280;6903;49.480;11.102;2023-05-22T07:41:19;97566.75;;;29.09;55.94
13661;BME280;6903;49.480;11.102;2023-05-22T07:43:46;97564.56;;;29.83;54.11
13661;BME280;6903;49.480;11.102;2023-05-22T07:46:11;97563.00;;;30.30;53.30
13661;BME280;6903;49.480;11.102;2023-05-22T07:48:36;97567.38;;;29.88;51.54
13661;BME280;6903;49.480;11.102;2023-05-22T07:51:02;97562.63;;;28.90;52.33
13661;BME280;6903;49.480;11.102;2023-05-22T07:53:28;97557.53;;;28.94;52.31
13661;BME280;6903;49.480;11.102;2023-05-22T07:55:53;97561.06;;;28.78;51.27
13661;BME280;6903;49.480;11.102;2023-05-22T07:58:18;97559.72;;;27.79;52.22
13661;BME280;6903;49.480;11.102;2023-05-22T08:00:44;97552.34;;;27.52;53.08
13661;BME280;6903;49.480;11.102;2023-05-22T08:03:09;97556.38;;;27.49;53.04
13661;BME280;6903;49.480;11.102;2023-05-22T08:05:35;97558.59;;;27.64;52.48
13661;BME280;6903;49.480;11.102;2023-05-22T08:08:00;97564.72;;;28.11;51.67
13661;BME280;6903;49.480;11.102;2023-05-22T08:10:27;97564.38;;;28.07;51.35
13661;BME280;6903;49.480;11.102;2023-05-22T08:12:52;97561.16;;;28.10;51.28
13661;BME280;6903;49.480;11.102;2023-05-22T08:15:17;97554.16;;;27.98;51.44
13661;BME280;6903;49.480;11.102;2023-05-22T08:17:42;97555.75;;;28.38;51.18
13661;BME280;6903;49.480;11.102;2023-05-22T08:20:08;97558.19;;;29.34;48.82
13661;BME280;6903;49.480;11.102;2023-05-22T08:22:34;97560.88;;;29.34;48.22
13661;BME280;6903;49.480;11.102;2023-05-22T08:24:59;97554.06;;;28.98;48.36
13661;BME280;6903;49.480;11.102;2023-05-22T08:27:24;97560.06;;;28.67;48.98
13661;BME280;6903;49.480;11.102;2023-05-22T08:29:50;97558.50;;;28.55;48.73
13661;BME280;6903;49.480;11.102;2023-05-22T08:32:16;97557.28;;;28.95;48.42
13661;BME280;6903;49.480;11.102;2023-05-22T08:34:41;97552.41;;;29.31;47.61
13661;BME280;6903;49.480;11.102;2023-05-22T08:37:07;97558.06;;;29.84;46.83
13661;BME280;6903;49.480;11.102;2023-05-22T08:39:33;97562.78;;;30.15;46.83
13661;BME280;6903;49.480;11.102;2023-05-22T08:41:58;97563.38;;;30.43;45.80
13661;BME280;6903;49.480;11.102;2023-05-22T08:44:24;97557.22;;;30.05;45.03
13661;BME280;6903;49.480;11.102;2023-05-22T08:46:53;97551.03;;;29.28;47.24
13661;BME280;6903;49.480;11.102;2023-05-22T08:49:20;97550.94;;;30.04;45.72
13661;BME280;6903;49.480;11.102;2023-05-22T08:51:47;97541.59;;;30.70;44.72
13661;BME280;6903;49.480;11.102;2023-05-22T08:54:17;97551.53;;;30.81;43.50
13661;BME280;6903;49.480;11.102;2023-05-22T08:56:45;97550.34;;;29.97;44.26
13661;BME280;6903;49.480;11.102;2023-05-22T08:59:14;97542.06;;;30.35;44.47
13661;BME280;6903;49.480;11.102;2023-05-22T09:01:39;97551.56;;;30.86;42.71
13661;BME280;6903;49.480;11.102;2023-05-22T09:04:05;97547.84;;;30.71;42.63
13661;BME280;6903;49.480;11.102;2023-05-22T09:06:30;97532.28;;;30.98;42.13
13661;BME280;6903;49.480;11.102;2023-05-22T09:08:56;97533.53;;;31.17;41.68
13661;BME280;6903;49.480;11.102;2023-05-22T09:11:23;97532.28;;;31.81;41.22
13661;BME280;6903;49.480;11.102;2023-05-22T09:13:48;97535.81;;;31.77;40.56
13661;BME280;6903;49.480;11.102;2023-05-22T09:16:15;97534.72;;;31.77;40.45
13661;BME280;6903;49.480;11.102;2023-05-22T09:18:41;97529.22;;;31.26;39.32
13661;BME280;6903;49.480;11.102;2023-05-22T09:21:08;97523.28;;;30.34;40.64
13661;BME280;6903;49.480;11.102;2023-05-22T09:23:33;97530.13;;;30.15;41.97
13661;BME280;6903;49.480;11.102;2023-05-22T09:26:00;97528.25;;;30.42;41.63
13661;BME280;6903;49.480;11.102;2023-05-22T09:28:26;97524.53;;;30.21;40.66
13661;BME280;6903;49.480;11.102;2023-05-22T09:30:56;97525.97;;;30.56;40.49
13661;BME280;6903;49.480;11.102;2023-05-22T09:33:22;97519.69;;;30.87;40.63
13661;BME280;6903;49.480;11.102;2023-05-22T09:35:50;97523.91;;;31.41;39.51
13661;BME280;6903;49.480;11.102;2023-05-22T09:38:16;97515.53;;;32.24;38.01
13661;BME280;6903;49.480;11.102;2023-05-22T09:40:41;97522.69;;;33.26;37.73
13661;BME280;6903;49.480;11.102;2023-05-22T09:43:10;97524.88;;;34.12;35.72
13661;BME280;6903;49.480;11.102;2023-05-22T09:45:37;97522.31;;;33.67;34.34
13661;BME280;6903;49.480;11.102;2023-05-22T09:48:03;97514.78;;;33.09;34.18
13661;BME280;6903;49.480;11.102;2023-05-22T09:50:30;97521.59;;;32.81;34.20
13661;BME280;6903;49.480;11.102;2023-05-22T09:52:55;97518.75;;;32.11;34.25
13661;BME280;6903;49.480;11.102;2023-05-22T09:55:21;97510.38;;;31.19;35.40
13661;BME280;6903;49.480;11.102;2023-05-22T09:57:50;97512.91;;;30.89;35.09
13661;BME280;6903;49.480;11.102;2023-05-22T10:00:16;97511.31;;;31.35;35.08
13661;BME280;6903;49.480;11.102;2023-05-22T10:02:44;97502.88;;;31.31;35.51
13661;BME280;6903;49.480;11.102;2023-05-22T10:05:11;97490.94;;;31.42;36.22
13661;BME280;6903;49.480;11.102;2023-05-22T10:07:43;97497.09;;;31.28;35.82
13661;BME280;6903;49.480;11.102;2023-05-22T10:10:10;97493.06;;;30.62;36.21
13661;BME280;6903;49.480;11.102;2023-05-22T10:12:40;97489.09;;;30.75;36.46
13661;BME280;6903;49.480;11.102;2023-05-22T10:15:08;97487.13;;;30.38;37.30
13661;BME280;6903;49.480;11.102;2023-05-22T10:17:35;97483.22;;;30.03;37.12
13661;BME280;6903;49.480;11.102;2023-05-22T10:20:02;97482.16;;;30.57;37.37
13661;BME280;6903;49.480;11.102;2023-05-22T10:22:30;97481.06;;;31.36;36.67
13661;BME280;6903;49.480;11.102;2023-05-22T10:24:57;97479.84;;;32.41;35.90
13661;BME280;6903;49.480;11.102;2023-05-22T10:27:22;97485.00;;;32.67;34.29
13661;BME280;6903;49.480;11.102;2023-05-22T10:33:06;97480.06;;;32.34;33.94
13661;BME280;6903;49.480;11.102;2023-05-22T10:35:44;97478.72;;;32.42;33.83
13661;BME280;6903;49.480;11.102;2023-05-22T10:38:45;97476.00;;;32.62;32.82
13661;BME280;6903;49.480;11.102;2023-05-22T10:41:15;97474.63;;;33.04;32.51
13661;BME280;6903;49.480;11.102;2023-05-22T10:43:41;97479.91;;;33.75;32.10
13661;BME280;6903;49.480;11.102;2023-05-22T10:46:07;97478.00;;;34.63;30.66
13661;BME280;6903;49.480;11.102;2023-05-22T10:48:42;97472.53;;;34.96;30.02
13661;BME280;6903;49.480;11.102;2023-05-22T10:51:11;97476.28;;;34.33;28.82
13661;BME280;6903;49.480;11.102;2023-05-22T10:53:37;97477.06;;;33.11;30.19
13661;BME280;6903;49.480;11.102;2023-05-22T10:56:14;97477.31;;;32.29;31.13
13661;BME280;6903;49.480;11.102;2023-05-22T10:58:46;97476.72;;;31.92;30.78
13661;BME280;6903;49.480;11.102;2023-05-22T11:01:19;97469.34;;;31.98;30.53
13661;BME280;6903;49.480;11.102;2023-05-22T11:06:35;97463.16;;;32.97;30.38
13661;BME280;6903;49.480;11.102;2023-05-22T11:09:40;97466.38;;;34.03;29.77
13661;BME280;6903;49.480;11.102;2023-05-22T11:12:14;97460.47;;;34.64;28.62
13661;BME280;6903;49.480;11.102;2023-05-22T11:14:41;97462.19;;;34.55;26.98
13661;BME280;6903;49.480;11.102;2023-05-22T11:17:06;97471.34;;;33.08;28.04
13661;BME280;6903;49.480;11.102;2023-05-22T11:19:32;97463.41;;;32.31;29.21
13661;BME280;6903;49.480;11.102;2023-05-22T11:22:02;97463.66;;;32.19;29.19
13661;BME280;6903;49.480;11.102;2023-05-22T11:24:31;97460.34;;;31.92;28.62
13661;BME280;6903;49.480;11.102;2023-05-22T11:27:07;97465.63;;;31.47;28.29
13661;BME280;6903;49.480;11.102;2023-05-22T11:29:33;97458.53;;;31.04;29.62
13661;BME280;6903;49.480;11.102;2023-05-22T11:32:00;97468.28;;;31.37;30.20
13661;BME280;6903;49.480;11.102;2023-05-22T11:34:26;97449.38;;;31.82;30.05
13661;BME280;6903;49.480;11.102;2023-05-22T11:36:56;97445.97;;;32.97;28.98
13661;BME280;6903;49.480;11.102;2023-05-22T11:39:22;97436.28;;;34.03;28.46
13661;BME280;6903;49.480;11.102;2023-05-22T11:41:47;97440.91;;;35.04;27.73
13661;BME280;6903;49.480;11.102;2023-05-22T11:44:12;97442.97;;;35.45;26.33
13661;BME280;6903;49.480;11.102;2023-05-22T11:46:38;97436.06;;;34.96;25.60
13661;BME280;6903;49.480;11.102;2023-05-22T11:49:03;97443.06;;;34.78;26.28
13661;BME280;6903;49.480;11.102;2023-05-22T11:51:29;97428.72;;;34.63;26.18
13661;BME280;6903;49.480;11.102;2023-05-22T11:53:55;97425.47;;;34.56;26.68
13661;BME280;6903;49.480;11.102;2023-05-22T11:56:21;97430.13;;;34.89;25.99
13661;BME280;6903;49.480;11.102;2023-05-22T11:58:49;97436.00;;;35.29;25.12
13661;BME280;6903;49.480;11.102;2023-05-22T12:01:14;97437.16;;;34.32;26.18
13661;BME280;6903;49.480;11.102;2023-05-22T12:03:40;97430.13;;;34.60;25.96
13661;BME280;6903;49.480;11.102;2023-05-22T12:06:06;97438.16;;;35.32;25.76
13661;BME280;6903;49.480;11.102;2023-05-22T12:08:32;97428.44;;;36.24;26.57
13661;BME280;6903;49.480;11.102;2023-05-22T12:10:57;97418.88;;;36.72;25.24
13661;BME280;6903;49.480;11.102;2023-05-22T12:13:27;97425.56;;;36.99;25.29
13661;BME280;6903;49.480;11.102;2023-05-22T12:15:56;97419.38;;;37.20;25.06
13661;BME280;6903;49.480;11.102;2023-05-22T12:18:21;97418.19;;;37.40;24.19
13661;BME280;6903;49.480;11.102;2023-05-22T12:20:50;97425.50;;;37.58;24.91
13661;BME280;6903;49.480;11.102;2023-05-22T12:23:26;97416.28;;;36.94;23.26
13661;BME280;6903;49.480;11.102;2023-05-22T12:25:56;97414.34;;;36.81;23.59
13661;BME280;6903;49.480;11.102;2023-05-22T12:28:21;97420.16;;;35.50;24.53
13661;BME280;6903;49.480;11.102;2023-05-22T12:30:51;97414.53;;;35.60;25.16
13661;BME280;6903;49.480;11.102;2023-05-22T12:33:16;97413.00;;;36.47;24.92
13661;BME280;6903;49.480;11.102;2023-05-22T12:35:41;97408.69;;;37.46;24.66
13661;BME280;6903;49.480;11.102;2023-05-22T12:38:07;97407.28;;;38.11;24.27
13661;BME280;6903;49.480;11.102;2023-05-22T12:40:33;97405.94;;;38.08;22.85
13661;BME280;6903;49.480;11.102;2023-05-22T12:42:58;97401.84;;;37.03;22.81
13661;BME280;6903;49.480;11.102;2023-05-22T12:45:24;97407.16;;;35.32;23.71
13661;BME280;6903;49.480;11.102;2023-05-22T12:47:49;97407.59;;;34.97;24.52
13661;BME280;6903;49.480;11.102;2023-05-22T12:50:14;97398.63;;;34.58;24.67
13661;BME280;6903;49.480;11.102;2023-05-22T12:52:39;97395.63;;;34.20;25.00
13661;BME280;6903;49.480;11.102;2023-05-22T12:55:05;97397.03;;;34.80;24.93
13661;BME280;6903;49.480;11.102;2023-05-22T12:57:31;97402.69;;;35.17;24.57
13661;BME280;6903;49.480;11.102;2023-05-22T12:59:56;97399.16;;;34.60;25.46
13661;BME280;6903;49.480;11.102;2023-05-22T13:02:21;97397.50;;;34.25;25.46
13661;BME280;6903;49.480;11.102;2023-05-22T13:04:47;97391.53;;;33.79;26.28
13661;BME280;6903;49.480;11.102;2023-05-22T13:07:12;97396.19;;;33.10;26.69
13661;BME280;6903;49.480;11.102;2023-05-22T13:09:37;97389.41;;;32.87;26.79
13661;BME280;6903;49.480;11.102;2023-05-22T13:12:03;97391.59;;;32.95;26.97
13661;BME280;6903;49.480;11.102;2023-05-22T13:14:28;97386.97;;;32.91;26.37
13661;BME280;6903;49.480;11.102;2023-05-22T13:16:54;97392.34;;;33.21;26.14